Time;durP1;ratioP1;P1;durP2;ratioP2;P2;SDS_P1;SDS_P2;PMS_P1;PMS_P2;Temp;Humidity;BMP_temperature;BMP_pressure;BME280_temperature;BME280_humidity;BME280_pressure;Samples;Min_cycle;Max_cycle;Signal;HPM_P1;HPM_P2
2023/08/27 00:02:25;;;;;;;10.98;9.98;;;13.20;99.90;;;;;;7373010;19;20018;-63
2023/08/27 00:04:52;;;;;;;13.18;11.10;;;13.20;99.90;;;;;;7369040;19;20037;-63
2023/08/27 00:07:19;;;;;;;12.23;10.98;;;13.20;99.90;;;;;;7376566;19;20033;-62
2023/08/27 00:09:45;;;;;;;10.50;9.60;;;13.20;99.90;;;;;;7368776;19;20478;-63
2023/08/27 00:12:11;;;;;;;11.32;10.20;;;13.20;99.90;;;;;;7376677;19;20094;-62
2023/08/27 00:14:37;;;;;;;11.52;10.52;;;13.20;99.90;;;;;;7369537;19;20014;-63
2023/08/27 00:17:24;;;;;;;11.00;10.00;;;13.10;99.90;;;;;;7375432;19;20018;-62
2023/08/27 00:19:50;;;;;;;12.68;11.48;;;13.10;99.90;;;;;;7371161;19;20010;-63
2023/08/27 00:22:17;;;;;;;11.18;10.07;;;13.10;99.90;;;;;;7361762;19;20019;-63
2023/08/27 00:24:43;;;;;;;12.13;11.13;;;13.10;99.90;;;;;;7370881;19;20018;-62
2023/08/27 00:27:09;;;;;;;11.93;10.73;;;13.10;99.90;;;;;;7374033;19;20019;-63
2023/08/27 00:29:35;;;;;;;12.85;11.48;;;13.00;99.90;;;;;;7368952;19;20485;-62
2023/08/27 00:32:02;;;;;;;12.75;11.55;;;13.00;99.90;;;;;;7372196;19;20382;-62
2023/08/27 00:34:34;;;;;;;12.10;11.00;;;13.00;99.90;;;;;;7366971;19;20014;-63
2023/08/27 00:37:01;;;;;;;11.88;10.77;;;13.00;99.90;;;;;;7368774;19;20021;-63
2023/08/27 00:39:31;;;;;;;11.60;10.57;;;12.90;99.90;;;;;;7373743;19;20018;-62
2023/08/27 00:41:57;;;;;;;12.13;10.93;;;12.90;99.90;;;;;;7370258;19;20118;-62
2023/08/27 00:44:23;;;;;;;12.32;11.15;;;12.90;99.90;;;;;;7371203;19;20029;-63
2023/08/27 00:46:50;;;;;;;13.25;12.05;;;12.90;99.90;;;;;;7375658;19;20364;-62
2023/08/27 00:49:17;;;;;;;13.23;12.02;;;12.90;99.90;;;;;;7366798;19;20025;-62
2023/08/27 00:51:46;;;;;;;11.98;10.98;;;12.90;99.90;;;;;;7372495;19;20021;-63
2023/08/27 00:54:14;;;;;;;13.02;11.85;;;12.90;99.90;;;;;;7361963;19;20788;-63
2023/08/27 00:56:44;;;;;;;12.77;11.65;;;12.90;99.90;;;;;;7370648;19;20029;-63
2023/08/27 00:59:31;;;;;;;13.70;12.25;;;12.90;99.90;;;;;;7370923;19;20019;-64
2023/08/27 01:02:18;;;;;;;13.60;12.40;;;13.00;99.90;;;;;;7369440;19;20053;-63
2023/08/27 01:04:44;;;;;;;12.77;11.50;;;13.00;99.90;;;;;;7365653;19;20029;-64
2023/08/27 01:07:16;;;;;;;13.02;11.82;;;13.00;99.90;;;;;;7364501;19;20014;-63
2023/08/27 01:10:08;;;;;;;13.55;12.45;;;13.10;99.90;;;;;;7367568;19;20109;-64
2023/08/27 01:13:04;;;;;;;13.98;12.27;;;13.10;99.90;;;;;;7357387;19;20473;-62
2023/08/27 01:15:32;;;;;;;12.52;11.43;;;13.20;99.90;;;;;;7364334;19;20023;-64
2023/08/27 01:18:19;;;;;;;13.90;12.70;;;13.20;99.90;;;;;;7368518;19;20050;-63
2023/08/27 01:20:45;;;;;;;13.48;12.23;;;13.20;99.90;;;;;;7365645;19;20869;-63
2023/08/27 01:23:13;;;;;;;14.82;12.70;;;13.30;99.90;;;;;;7365765;19;20057;-63
2023/08/27 01:25:47;;;;;;;13.60;12.30;;;13.30;99.90;;;;;;7363127;19;20022;-63
2023/08/27 01:28:33;;;;;;;14.50;13.18;;;13.40;99.90;;;;;;7370415;19;20033;-63
2023/08/27 01:31:04;;;;;;;14.25;12.88;;;13.40;99.90;;;;;;7360505;19;20018;-63
2023/08/27 01:33:33;;;;;;;13.68;12.43;;;13.50;99.90;;;;;;7363228;19;20034;-63
2023/08/27 01:36:01;;;;;;;13.45;12.32;;;13.50;99.90;;;;;;7365888;19;20015;-63
2023/08/27 01:38:27;;;;;;;14.20;12.98;;;13.50;99.90;;;;;;7364646;19;20039;-63
2023/08/27 01:40:55;;;;;;;13.02;11.63;;;13.50;99.90;;;;;;7367033;19;20019;-64
2023/08/27 01:43:21;;;;;;;13.43;12.20;;;13.60;99.90;;;;;;7357466;19;20015;-64
2023/08/27 01:45:48;;;;;;;15.18;13.77;;;13.60;99.90;;;;;;7362663;19;20018;-63
2023/08/27 01:48:14;;;;;;;13.70;12.50;;;13.60;99.90;;;;;;7365840;19;20097;-63
2023/08/27 01:50:41;;;;;;;14.43;12.77;;;13.60;99.90;;;;;;7362281;19;20007;-65
2023/08/27 01:53:07;;;;;;;14.63;13.32;;;13.60;99.90;;;;;;7362136;19;20508;-63
2023/08/27 01:55:34;;;;;;;12.55;11.35;;;13.50;99.90;;;;;;7364043;19;20018;-64
2023/08/27 01:58:00;;;;;;;13.88;12.60;;;13.50;99.90;;;;;;7363466;19;20814;-64
2023/08/27 02:00:27;;;;;;;14.05;12.65;;;13.50;99.90;;;;;;7358225;19;20026;-63
2023/08/27 02:03:14;;;;;;;14.30;13.10;;;13.50;99.90;;;;;;7361917;19;20022;-63
2023/08/27 02:05:40;;;;;;;14.88;13.45;;;13.50;99.90;;;;;;7357278;19;20046;-63
2023/08/27 02:08:07;;;;;;;14.52;13.23;;;13.40;99.90;;;;;;7366905;19;20018;-63
2023/08/27 02:10:54;;;;;;;15.07;13.68;;;13.40;99.90;;;;;;7363575;19;20018;-63
2023/08/27 02:13:20;;;;;;;13.85;12.55;;;13.40;99.90;;;;;;7365849;19;20085;-63
2023/08/27 02:15:46;;;;;;;14.25;12.95;;;13.30;99.90;;;;;;7357070;19;20022;-64
2023/08/27 02:18:13;;;;;;;13.38;12.05;;;13.20;99.90;;;;;;7366942;19;20521;-64
2023/08/27 02:20:39;;;;;;;14.77;13.38;;;13.10;99.90;;;;;;7360585;19;20022;-64
2023/08/27 02:23:05;;;;;;;15.27;13.88;;;13.10;99.90;;;;;;7370176;19;20604;-63
2023/08/27 02:25:31;;;;;;;14.57;13.27;;;13.00;99.90;;;;;;7370211;19;20059;-62
2023/08/27 02:27:58;;;;;;;14.15;12.65;;;12.90;99.90;;;;;;7372746;19;20019;-62
2023/08/27 02:30:24;;;;;;;13.65;12.45;;;12.90;99.90;;;;;;7369402;19;20052;-62
2023/08/27 02:32:50;;;;;;;13.95;12.60;;;12.80;99.90;;;;;;7372142;19;20363;-63
2023/08/27 02:35:19;;;;;;;14.55;13.05;;;12.80;99.90;;;;;;7373828;19;20799;-63
2023/08/27 02:37:45;;;;;;;12.68;11.45;;;12.80;99.90;;;;;;7374928;19;20045;-63
2023/08/27 02:40:13;;;;;;;13.30;11.98;;;12.70;99.90;;;;;;7368740;19;20727;-65
2023/08/27 02:42:39;;;;;;;12.98;11.57;;;12.70;99.90;;;;;;7367165;19;20484;-63
2023/08/27 02:45:06;;;;;;;13.57;12.27;;;12.70;99.90;;;;;;7363970;19;20017;-64
2023/08/27 02:47:32;;;;;;;14.77;13.20;;;12.70;99.90;;;;;;7371455;19;20018;-63
2023/08/27 02:50:03;;;;;;;13.90;12.57;;;12.60;99.90;;;;;;7370346;19;20516;-64
2023/08/27 02:52:50;;;;;;;13.82;12.60;;;12.70;99.90;;;;;;7372779;19;20362;-63
2023/08/27 02:55:17;;;;;;;14.73;13.43;;;12.60;99.90;;;;;;7368751;19;20110;-63
2023/08/27 02:57:43;;;;;;;17.75;15.38;;;12.70;99.90;;;;;;7371238;19;20082;-64
2023/08/27 03:00:10;;;;;;;16.73;15.23;;;12.70;99.90;;;;;;7364422;19;20486;-65
2023/08/27 03:02:36;;;;;;;15.80;14.38;;;12.80;99.90;;;;;;7372382;19;20038;-64
2023/08/27 03:05:04;;;;;;;16.33;14.52;;;12.80;99.90;;;;;;7363441;19;20031;-64
2023/08/27 03:07:30;;;;;;;16.25;14.65;;;12.80;99.90;;;;;;7368872;19;20014;-64
2023/08/27 03:09:58;;;;;;;15.60;13.98;;;12.80;99.90;;;;;;7369435;19;20581;-64
2023/08/27 03:12:24;;;;;;;15.13;13.68;;;12.90;99.90;;;;;;7363496;19;20047;-63
2023/08/27 03:14:50;;;;;;;14.13;12.88;;;12.90;99.90;;;;;;7370349;19;20014;-64
2023/08/27 03:17:16;;;;;;;14.15;12.90;;;12.90;99.90;;;;;;7367533;19;20018;-64
2023/08/27 03:19:43;;;;;;;14.35;13.10;;;13.00;99.90;;;;;;7369243;19;20022;-63
2023/08/27 03:22:09;;;;;;;15.30;13.75;;;13.00;99.90;;;;;;7369662;19;20022;-63
2023/08/27 03:24:36;;;;;;;14.55;13.20;;;13.10;99.90;;;;;;7370276;19;20093;-62
2023/08/27 03:27:02;;;;;;;13.88;12.57;;;13.10;99.90;;;;;;7366204;19;20082;-62
2023/08/27 03:29:29;;;;;;;14.57;13.27;;;13.10;99.90;;;;;;7367559;19;20018;-62
2023/08/27 03:31:56;;;;;;;14.55;13.15;;;13.20;99.90;;;;;;7372255;19;20074;-62
2023/08/27 03:34:22;;;;;;;13.88;12.68;;;13.20;99.90;;;;;;7367483;19;20022;-63
2023/08/27 03:36:49;;;;;;;14.43;13.02;;;13.30;99.90;;;;;;7367796;19;21650;-64
2023/08/27 03:39:15;;;;;;;14.77;13.48;;;13.30;99.90;;;;;;7368601;19;20029;-63
2023/08/27 03:41:41;;;;;;;14.25;12.85;;;13.30;99.90;;;;;;7365759;19;20093;-63
2023/08/27 03:44:08;;;;;;;14.63;13.32;;;13.30;99.90;;;;;;7366879;19;20382;-63
2023/08/27 03:46:34;;;;;;;13.65;12.35;;;13.40;99.90;;;;;;7364279;19;20421;-63
2023/08/27 03:49:01;;;;;;;13.20;12.10;;;13.40;99.90;;;;;;7367598;19;20358;-63
2023/08/27 03:51:29;;;;;;;12.82;11.82;;;13.40;99.90;;;;;;7371517;19;20030;-63
2023/08/27 03:53:57;;;;;;;13.38;12.27;;;13.40;99.90;;;;;;7369459;19;20070;-64
2023/08/27 03:56:24;;;;;;;13.23;12.13;;;13.40;99.90;;;;;;7362254;19;20510;-63
2023/08/27 03:58:51;;;;;;;12.30;11.10;;;13.40;99.90;;;;;;7367164;19;20029;-63
2023/08/27 04:01:17;;;;;;;12.27;11.18;;;13.40;99.90;;;;;;7364329;19;20082;-63
2023/08/27 04:03:44;;;;;;;12.73;11.63;;;13.40;99.90;;;;;;7367103;19;20415;-63
2023/08/27 04:06:11;;;;;;;11.93;10.95;;;13.40;99.90;;;;;;7366356;19;20436;-63
2023/08/27 04:08:37;;;;;;;11.50;10.20;;;13.40;99.90;;;;;;7367173;19;20018;-63
2023/08/27 04:11:04;;;;;;;11.60;10.43;;;13.40;99.90;;;;;;7366943;19;20014;-63
2023/08/27 04:13:31;;;;;;;11.75;10.65;;;13.40;99.90;;;;;;7368594;19;20454;-63
2023/08/27 04:15:59;;;;;;;11.25;10.15;;;13.30;99.90;;;;;;7371125;19;20169;-62
2023/08/27 04:18:27;;;;;;;11.82;10.70;;;13.30;99.90;;;;;;7370358;19;20022;-63
2023/08/27 04:20:54;;;;;;;11.23;10.23;;;13.30;99.90;;;;;;7370140;19;20098;-63
2023/08/27 04:23:20;;;;;;;11.75;10.75;;;13.20;99.90;;;;;;7366987;19;20927;-62
2023/08/27 04:25:47;;;;;;;12.32;11.23;;;13.10;99.90;;;;;;7368027;19;20072;-62
2023/08/27 04:28:15;;;;;;;11.10;10.10;;;13.10;99.90;;;;;;7370930;19;20018;-62
2023/08/27 04:30:42;;;;;;;10.00;9.10;;;13.10;99.90;;;;;;7369981;19;20022;-63
2023/08/27 04:33:10;;;;;;;11.18;10.18;;;13.00;99.90;;;;;;7361990;19;20468;-62
2023/08/27 04:35:38;;;;;;;11.65;10.55;;;12.90;99.90;;;;;;7370681;19;20019;-63
2023/08/27 04:38:05;;;;;;;12.27;11.02;;;12.80;99.90;;;;;;7363359;19;20357;-63
2023/08/27 04:40:32;;;;;;;11.55;10.35;;;12.80;99.90;;;;;;7368539;19;20025;-63
2023/08/27 04:42:59;;;;;;;11.63;10.43;;;12.80;99.90;;;;;;7358907;19;20019;-63
2023/08/27 04:45:25;;;;;;;11.45;10.25;;;12.70;99.90;;;;;;7362502;19;20346;-64
2023/08/27 04:48:11;;;;;;;11.00;10.00;;;12.70;99.90;;;;;;7365015;19;20018;-63
2023/08/27 04:50:38;;;;;;;12.32;11.23;;;12.60;99.90;;;;;;7368314;19;20042;-63
2023/08/27 04:53:05;;;;;;;11.30;10.20;;;12.60;99.90;;;;;;7366601;19;20406;-63
2023/08/27 04:55:32;;;;;;;11.50;10.30;;;12.60;99.90;;;;;;7363254;19;20470;-64
2023/08/27 04:57:58;;;;;;;11.38;10.35;;;12.60;99.90;;;;;;7369021;19;20021;-64
2023/08/27 05:00:25;;;;;;;11.82;10.73;;;12.60;99.90;;;;;;7366245;19;20041;-63
2023/08/27 05:02:51;;;;;;;13.77;11.07;;;12.60;99.90;;;;;;7366366;19;20358;-63
2023/08/27 05:05:18;;;;;;;12.25;10.90;;;12.60;99.90;;;;;;7364852;19;21091;-63
2023/08/27 05:07:45;;;;;;;12.05;10.93;;;12.60;99.90;;;;;;7364932;19;20019;-63
2023/08/27 05:10:11;;;;;;;12.50;11.20;;;12.70;99.90;;;;;;7366053;19;20114;-62
2023/08/27 05:12:39;;;;;;;13.15;11.80;;;12.70;99.90;;;;;;7362476;19;20021;-62
2023/08/27 05:15:08;;;;;;;12.57;11.48;;;12.80;99.90;;;;;;7361555;19;20024;-64
2023/08/27 05:17:34;;;;;;;11.77;10.60;;;12.80;99.90;;;;;;7367272;19;20840;-63
2023/08/27 05:20:00;;;;;;;12.98;11.77;;;12.90;99.90;;;;;;7362326;19;20022;-64
2023/08/27 05:22:28;;;;;;;14.20;12.63;;;13.00;99.90;;;;;;7367039;19;20025;-64
2023/08/27 05:25:14;;;;;;;13.60;12.35;;;13.10;99.90;;;;;;7359348;19;20038;-64
2023/08/27 05:27:44;;;;;;;13.85;12.57;;;13.20;99.90;;;;;;7368764;19;20025;-64
2023/08/27 05:30:30;;;;;;;14.73;13.20;;;13.30;99.90;;;;;;7363282;19;20516;-64
2023/08/27 05:32:58;;;;;;;13.73;12.60;;;13.50;99.90;;;;;;7368199;19;20014;-64
2023/08/27 05:35:27;;;;;;;14.00;12.70;;;13.60;99.90;;;;;;7359613;19;20023;-64
2023/08/27 05:37:53;;;;;;;13.75;12.52;;;13.80;99.90;;;;;;7362386;19;20575;-62
2023/08/27 05:40:19;;;;;;;12.02;10.88;;;13.90;99.90;;;;;;7356580;19;20763;-64
2023/08/27 05:42:46;;;;;;;13.25;12.05;;;14.10;99.90;;;;;;7356660;19;20318;-61
2023/08/27 05:45:13;;;;;;;11.55;10.45;;;14.20;99.90;;;;;;7359436;19;20516;-63
2023/08/27 05:47:39;;;;;;;12.38;11.05;;;14.40;99.90;;;;;;7362921;19;20046;-63
2023/08/27 05:50:06;;;;;;;12.25;11.05;;;14.50;99.90;;;;;;7364203;19;20026;-65
2023/08/27 05:52:36;;;;;;;24.17;21.70;;;14.50;99.90;;;;;;7356851;19;20042;-73
2023/08/27 05:55:02;;;;;;;22.80;20.45;;;14.60;99.90;;;;;;7361150;19;20018;-65
2023/08/27 05:57:32;;;;;;;30.52;27.25;;;14.70;99.90;;;;;;7366388;19;20026;-65
2023/08/27 05:59:58;;;;;;;17.05;15.38;;;14.70;99.90;;;;;;7372251;19;20051;-66
2023/08/27 06:02:24;;;;;;;17.65;15.95;;;14.80;99.90;;;;;;7372860;19;20736;-65
2023/08/27 06:04:51;;;;;;;14.20;12.75;;;14.70;99.90;;;;;;7370932;19;20851;-66
2023/08/27 06:07:17;;;;;;;16.83;12.35;;;14.70;99.90;;;;;;7369114;19;20014;-65
2023/08/27 06:09:43;;;;;;;12.35;11.23;;;14.70;99.90;;;;;;7367675;19;20646;-65
2023/08/27 06:12:10;;;;;;;14.00;12.13;;;14.60;99.90;;;;;;7371287;19;20379;-65
2023/08/27 06:14:37;;;;;;;14.90;11.63;;;14.60;99.90;;;;;;7374647;19;20575;-65
2023/08/27 06:17:03;;;;;;;13.38;12.00;;;14.60;99.90;;;;;;7372139;19;20014;-66
2023/08/27 06:19:30;;;;;;;12.65;11.45;;;14.50;99.90;;;;;;7367781;19;20040;-69
2023/08/27 06:21:57;;;;;;;21.70;13.63;;;14.50;99.90;;;;;;7374804;19;20029;-61
2023/08/27 06:24:23;;;;;;;15.77;13.07;;;14.50;99.90;;;;;;7372087;19;20581;-65
2023/08/27 06:26:51;;;;;;;16.77;13.80;;;14.30;99.90;;;;;;7372028;19;20022;-65
2023/08/27 06:29:17;;;;;;;15.90;13.15;;;14.20;99.90;;;;;;7368092;19;20070;-64
2023/08/27 06:31:44;;;;;;;15.73;13.95;;;14.10;99.90;;;;;;7369984;19;20034;-63
2023/08/27 06:34:10;;;;;;;18.08;15.50;;;14.00;99.90;;;;;;7366733;19;20022;-65
2023/08/27 06:36:37;;;;;;;16.83;15.13;;;14.00;99.90;;;;;;7375484;19;20018;-65
2023/08/27 06:39:03;;;;;;;17.83;15.98;;;14.00;99.90;;;;;;7366727;19;20509;-66
2023/08/27 06:41:30;;;;;;;18.15;15.02;;;14.00;99.90;;;;;;7370064;19;20141;-65
2023/08/27 06:44:00;;;;;;;17.15;14.55;;;14.00;99.90;;;;;;7369506;19;20687;-67
2023/08/27 06:46:26;;;;;;;16.85;13.45;;;14.00;99.90;;;;;;7370832;19;20027;-64
2023/08/27 06:49:12;;;;;;;15.85;13.68;;;14.00;99.90;;;;;;7368397;19;20539;-66
2023/08/27 06:51:38;;;;;;;15.40;13.82;;;14.00;99.90;;;;;;7373019;19;20370;-65
2023/08/27 06:54:05;;;;;;;14.60;12.93;;;14.00;99.90;;;;;;7369178;19;20035;-62
2023/08/27 06:56:31;;;;;;;12.60;11.40;;;14.10;99.90;;;;;;7366809;19;20014;-65
2023/08/27 06:59:17;;;;;;;13.07;11.73;;;14.10;99.90;;;;;;7366861;19;20025;-65
2023/08/27 07:01:44;;;;;;;14.13;12.55;;;14.10;99.90;;;;;;7366444;19;20018;-64
2023/08/27 07:04:11;;;;;;;12.77;11.43;;;14.10;99.90;;;;;;7371607;19;20039;-68
2023/08/27 07:06:38;;;;;;;13.57;11.82;;;14.10;99.90;;;;;;7366107;19;20023;-65
2023/08/27 07:09:05;;;;;;;12.40;10.82;;;14.10;99.90;;;;;;7369708;19;20063;-65
2023/08/27 07:11:36;;;;;;;13.20;10.95;;;14.10;99.90;;;;;;7367163;19;20022;-64
2023/08/27 07:14:02;;;;;;;14.23;10.90;;;14.10;99.90;;;;;;7372522;19;20342;-63
2023/08/27 07:16:30;;;;;;;12.15;10.95;;;14.10;99.90;;;;;;7365858;19;20014;-65
2023/08/27 07:18:56;;;;;;;13.15;10.57;;;14.10;99.90;;;;;;7368507;19;20022;-66
2023/08/27 07:21:22;;;;;;;12.38;10.57;;;14.10;99.90;;;;;;7365086;19;20022;-65
2023/08/27 07:23:49;;;;;;;12.57;10.32;;;14.10;99.90;;;;;;7366746;19;20018;-66
2023/08/27 07:26:15;;;;;;;11.77;10.40;;;14.10;99.90;;;;;;7369598;19;20023;-66
2023/08/27 07:28:41;;;;;;;10.88;8.55;;;14.10;99.90;;;;;;7364705;19;20068;-65
2023/08/27 07:31:08;;;;;;;10.27;9.27;;;14.10;99.90;;;;;;7367181;19;20066;-67
2023/08/27 07:33:35;;;;;;;10.00;8.90;;;14.20;99.90;;;;;;7370409;19;20015;-65
2023/08/27 07:36:01;;;;;;;13.48;9.20;;;14.30;99.90;;;;;;7368880;19;20023;-65
2023/08/27 07:38:27;;;;;;;9.75;8.63;;;14.50;99.90;;;;;;7362410;19;20023;-65
2023/08/27 07:40:54;;;;;;;11.07;9.65;;;14.70;99.90;;;;;;7370748;19;20458;-66
2023/08/27 07:43:21;;;;;;;10.18;7.57;;;15.20;99.90;;;;;;7365720;19;20415;-65
2023/08/27 07:45:47;;;;;;;7.82;7.03;;;16.00;99.90;;;;;;7371056;19;20034;-62
2023/08/27 07:48:14;;;;;;;6.82;4.50;;;16.70;99.90;;;;;;7367817;19;20461;-62
2023/08/27 07:50:40;;;;;;;5.85;4.85;;;17.10;99.90;;;;;;7367028;19;20026;-62
2023/08/27 07:53:07;;;;;;;4.75;3.75;;;17.20;99.90;;;;;;7370598;19;20014;-62
2023/08/27 07:55:35;;;;;;;6.72;4.22;;;17.00;99.90;;;;;;7367467;19;20026;-62
2023/08/27 07:58:02;;;;;;;5.93;3.80;;;17.10;99.90;;;;;;7369918;19;20085;-63
2023/08/27 08:00:28;;;;;;;4.97;3.20;;;17.40;99.90;;;;;;7367621;19;20025;-63
2023/08/27 08:02:55;;;;;;;4.32;3.03;;;17.90;99.90;;;;;;7374819;19;20022;-62
2023/08/27 08:05:22;;;;;;;4.93;3.13;;;18.30;99.90;;;;;;7372097;19;20022;-62
2023/08/27 08:07:49;;;;;;;4.22;2.55;;;18.70;99.90;;;;;;7370874;19;20014;-62
2023/08/27 08:10:16;;;;;;;4.07;2.53;;;19.20;99.90;;;;;;7368050;19;20019;-65
2023/08/27 08:12:43;;;;;;;5.57;3.40;;;19.20;99.90;;;;;;7372469;19;20026;-65
2023/08/27 08:15:30;;;;;;;6.63;2.33;;;19.50;99.90;;;;;;7371211;19;20022;-66
2023/08/27 08:17:57;;;;;;;4.07;3.10;;;20.00;99.90;;;;;;7369744;19;20444;-66
2023/08/27 08:20:23;;;;;;;6.22;5.10;;;20.30;99.90;;;;;;7367089;19;20048;-66
2023/08/27 08:22:49;;;;;;;3.97;2.55;;;20.40;99.90;;;;;;7368488;19;20516;-66
2023/08/27 08:25:16;;;;;;;3.58;2.22;;;20.30;99.90;;;;;;7370455;19;20082;-63
2023/08/27 08:27:42;;;;;;;3.30;2.25;;;20.50;99.90;;;;;;7367943;19;20483;-64
2023/08/27 08:30:28;;;;;;;3.33;2.25;;;20.90;99.90;;;;;;7369637;19;20041;-64
2023/08/27 08:32:58;;;;;;;4.55;2.50;;;21.20;99.90;;;;;;7369499;19;20382;-65
2023/08/27 08:35:24;;;;;;;5.03;2.67;;;21.60;99.90;;;;;;7372351;19;20018;-65
2023/08/27 08:37:50;;;;;;;3.22;2.38;;;21.80;99.90;;;;;;7368574;19;20359;-67
2023/08/27 08:40:18;;;;;;;5.20;2.50;;;21.80;99.90;;;;;;7366070;19;20026;-65
2023/08/27 08:42:54;;;;;;;3.50;2.38;;;22.20;99.90;;;;;;7367616;19;20022;-65
2023/08/27 08:45:28;;;;;;;4.78;2.70;;;22.00;99.90;;;;;;7367057;19;20022;-65
2023/08/27 08:47:56;;;;;;;4.72;2.60;;;22.30;99.90;;;;;;7369110;19;20484;-68
2023/08/27 08:50:22;;;;;;;3.67;2.70;;;22.10;99.90;;;;;;7363886;19;20549;-64
2023/08/27 08:52:50;;;;;;;4.10;2.58;;;22.10;99.90;;;;;;7371721;19;20018;-65
2023/08/27 08:55:18;;;;;;;4.47;2.80;;;22.50;99.90;;;;;;7367058;19;20528;-65
2023/08/27 08:57:53;;;;;;;4.15;2.50;;;22.50;99.90;;;;;;7367943;19;20010;-65
2023/08/27 09:00:21;;;;;;;4.45;2.65;;;22.30;99.90;;;;;;7365676;19;20355;-65
2023/08/27 09:02:48;;;;;;;3.72;2.47;;;22.30;99.90;;;;;;7370129;19;20021;-65
2023/08/27 09:05:17;;;;;;;4.88;2.30;;;22.10;99.90;;;;;;7368571;19;20081;-64
2023/08/27 09:07:45;;;;;;;4.85;2.78;;;21.80;99.90;;;;;;7368764;19;20021;-64
2023/08/27 09:10:13;;;;;;;4.47;3.10;;;21.60;99.90;;;;;;7366212;19;20488;-64
2023/08/27 09:13:02;;;;;;;5.35;2.80;;;21.70;99.90;;;;;;7370994;19;20614;-65
2023/08/27 09:15:28;;;;;;;3.75;2.50;;;21.90;99.90;;;;;;7372302;19;20326;-64
2023/08/27 09:17:55;;;;;;;4.38;2.67;;;22.10;99.90;;;;;;7371372;19;20439;-64
2023/08/27 09:20:24;;;;;;;4.03;2.50;;;22.40;99.90;;;;;;7368907;19;20074;-64
2023/08/27 09:22:51;;;;;;;5.30;2.67;;;23.00;99.90;;;;;;7368892;19;20479;-64
2023/08/27 09:25:17;;;;;;;5.15;2.88;;;23.00;99.90;;;;;;7367220;19;20034;-65
2023/08/27 09:27:44;;;;;;;6.07;2.95;;;22.90;99.90;;;;;;7367687;19;20082;-65
2023/08/27 09:30:11;;;;;;;4.28;2.72;;;23.10;99.90;;;;;;7364296;19;20021;-64
2023/08/27 09:32:38;;;;;;;4.30;2.60;;;23.10;99.90;;;;;;7370939;19;20025;-64
2023/08/27 09:35:05;;;;;;;3.67;2.72;;;23.50;99.90;;;;;;7364505;19;20018;-64
2023/08/27 09:37:40;;;;;;;7.18;5.00;;;24.00;99.90;;;;;;7368527;19;20018;-64
2023/08/27 09:40:09;;;;;;;5.03;3.72;;;24.00;99.90;;;;;;7365530;19;20106;-63
2023/08/27 09:42:38;;;;;;;5.20;2.70;;;24.10;99.90;;;;;;7367147;19;20015;-64
2023/08/27 09:45:08;;;;;;;5.57;2.80;;;24.00;99.90;;;;;;7364966;19;20875;-64
2023/08/27 09:47:37;;;;;;;4.80;3.85;;;24.60;99.90;;;;;;7367871;19;20022;-64
2023/08/27 09:50:05;;;;;;;6.38;4.60;;;24.30;99.90;;;;;;7365340;19;20018;-64
2023/08/27 09:52:31;;;;;;;5.15;3.22;;;23.40;99.90;;;;;;7368549;19;20675;-65
2023/08/27 09:54:57;;;;;;;4.13;3.42;;;23.20;99.90;;;;;;7364683;19;20587;-64
2023/08/27 09:57:23;;;;;;;4.90;3.60;;;22.70;99.90;;;;;;7362650;19;20312;-64
2023/08/27 09:59:52;;;;;;;6.00;3.67;;;22.50;99.90;;;;;;7366681;19;20019;-64
2023/08/27 10:02:19;;;;;;;4.63;3.45;;;22.70;99.90;;;;;;7364916;19;20715;-64
2023/08/27 10:04:51;;;;;;;5.85;4.13;;;22.60;99.90;;;;;;7365606;19;20034;-64
2023/08/27 10:07:18;;;;;;;5.75;3.97;;;23.30;99.90;;;;;;7363300;19;20128;-66
2023/08/27 10:09:53;;;;;;;10.57;8.95;;;24.00;99.90;;;;;;7362826;19;20571;-69
2023/08/27 10:12:21;;;;;;;18.35;16.58;;;24.30;99.90;;;;;;7363578;19;20018;-72
2023/08/27 10:14:48;;;;;;;14.73;13.27;;;24.60;99.90;;;;;;7364308;19;20030;-62
2023/08/27 10:17:15;;;;;;;14.65;12.82;;;24.30;99.90;;;;;;7366568;19;20026;-67
2023/08/27 10:19:41;;;;;;;9.75;6.80;;;24.10;99.90;;;;;;7360488;19;20577;-67
2023/08/27 10:22:10;;;;;;;7.18;5.07;;;24.60;99.90;;;;;;7361336;19;21647;-68
2023/08/27 10:24:36;;;;;;;5.38;3.33;;;25.60;99.90;;;;;;7370240;19;20018;-67
2023/08/27 10:27:03;;;;;;;5.10;3.17;;;26.40;99.90;;;;;;7366290;19;20868;-66
2023/08/27 10:29:30;;;;;;;5.13;2.40;;;26.50;99.90;;;;;;7368531;19;20026;-67
2023/08/27 10:31:57;;;;;;;8.32;7.10;;;25.70;98.60;;;;;;7361563;19;20568;-66
2023/08/27 10:34:27;;;;;;;8.10;3.85;;;24.70;99.50;;;;;;7365486;19;20014;-66
2023/08/27 10:36:56;;;;;;;7.70;6.88;;;24.50;98.80;;;;;;7363789;19;20026;-66
2023/08/27 10:39:25;;;;;;;5.68;3.17;;;24.40;99.90;;;;;;7360691;19;20014;-65
2023/08/27 10:41:52;;;;;;;5.30;2.75;;;24.30;99.90;;;;;;7357440;19;20438;-67
2023/08/27 10:44:22;;;;;;;4.65;2.47;;;23.90;99.90;;;;;;7366062;19;20082;-67
2023/08/27 10:47:12;;;;;;;5.82;3.15;;;23.40;99.90;;;;;;7367130;19;20349;-67
2023/08/27 10:49:40;;;;;;;18.52;15.45;;;22.90;99.90;;;;;;7368407;19;20030;-70
2023/08/27 10:52:18;;;;;;;23.48;20.95;;;22.30;99.90;;;;;;7367818;19;20018;-65
2023/08/27 10:54:46;;;;;;;5.50;2.75;;;21.90;99.90;;;;;;7367877;19;20033;-65
2023/08/27 10:57:22;;;;;;;5.85;4.25;;;21.60;99.90;;;;;;7365073;19;20039;-65
2023/08/27 10:59:49;;;;;;;5.85;2.75;;;21.80;99.90;;;;;;7361377;19;20359;-65
2023/08/27 11:02:16;;;;;;;4.18;2.10;;;21.70;99.90;;;;;;7369010;19;20022;-65
2023/08/27 11:04:47;;;;;;;5.00;2.20;;;21.60;99.90;;;;;;7371278;19;20022;-65
2023/08/27 11:07:18;;;;;;;6.07;3.47;;;21.70;99.90;;;;;;7371979;19;20425;-65
2023/08/27 11:09:49;;;;;;;6.78;3.25;;;21.90;99.90;;;;;;7375459;19;20018;-65
2023/08/27 11:12:36;;;;;;;5.97;2.53;;;22.20;99.90;;;;;;7373592;19;20025;-65
2023/08/27 11:15:14;;;;;;;5.43;3.78;;;22.10;99.90;;;;;;7367938;19;20025;-65
2023/08/27 11:17:41;;;;;;;4.80;1.75;;;21.70;99.90;;;;;;7366842;19;20021;-64
2023/08/27 11:20:28;;;;;;;5.00;3.60;;;21.50;99.90;;;;;;7365925;19;20860;-65
2023/08/27 11:22:59;;;;;;;4.65;2.75;;;21.20;99.90;;;;;;7374830;19;20576;-62
2023/08/27 11:25:31;;;;;;;8.80;6.17;;;21.20;99.90;;;;;;7368022;19;20018;-64
2023/08/27 11:27:58;;;;;;;5.85;2.78;;;21.70;99.90;;;;;;7373363;19;20018;-64
2023/08/27 11:30:26;;;;;;;4.60;3.15;;;21.70;99.90;;;;;;7368366;19;20576;-64
2023/08/27 11:32:54;;;;;;;17.85;15.45;;;21.50;99.90;;;;;;7368497;19;20350;-65
2023/08/27 11:35:26;;;;;;;4.65;3.53;;;21.40;99.90;;;;;;7371003;19;20014;-65
2023/08/27 11:37:56;;;;;;;7.38;4.13;;;21.10;99.90;;;;;;7369949;19;20091;-65
2023/08/27 11:40:23;;;;;;;8.98;7.43;;;20.80;99.90;;;;;;7369777;19;20477;-65
2023/08/27 11:42:54;;;;;;;8.52;4.70;;;20.70;99.90;;;;;;7370009;19;20089;-64
2023/08/27 11:45:31;;;;;;;9.15;6.47;;;20.40;99.90;;;;;;7368550;19;20085;-65
2023/08/27 11:48:02;;;;;;;6.28;4.68;;;20.10;99.90;;;;;;7366829;19;20023;-65
2023/08/27 11:50:32;;;;;;;7.28;5.07;;;19.70;99.90;;;;;;7365317;19;20018;-66
2023/08/27 11:52:59;;;;;;;7.30;4.97;;;19.20;99.90;;;;;;7365337;19;20056;-66
2023/08/27 11:55:26;;;;;;;6.88;4.78;;;18.80;99.90;;;;;;7362751;19;20486;-67
2023/08/27 11:57:52;;;;;;;12.93;6.25;;;18.40;99.90;;;;;;7364277;19;20018;-67
2023/08/27 12:00:20;;;;;;;11.25;5.95;;;17.90;99.90;;;;;;7365538;19;20029;-66
2023/08/27 12:02:46;;;;;;;7.20;5.15;;;17.10;99.90;;;;;;7368550;19;20102;-64
2023/08/27 12:05:16;;;;;;;8.93;5.95;;;16.00;99.90;;;;;;7366853;19;20018;-64
2023/08/27 12:07:43;;;;;;;8.20;6.82;;;15.60;99.90;;;;;;7360585;19;20028;-64
2023/08/27 12:10:11;;;;;;;7.35;6.13;;;15.30;99.90;;;;;;7362685;19;20015;-62
2023/08/27 12:12:44;;;;;;;8.35;6.47;;;15.20;99.90;;;;;;7363545;19;20022;-63
2023/08/27 12:15:13;;;;;;;6.28;5.60;;;15.10;99.90;;;;;;7362640;19;20015;-64
2023/08/27 12:17:43;;;;;;;7.18;5.55;;;15.30;99.90;;;;;;7367846;19;20473;-64
2023/08/27 12:20:10;;;;;;;6.80;5.80;;;15.50;99.90;;;;;;7362616;19;21526;-63
2023/08/27 12:22:44;;;;;;;7.15;5.85;;;15.80;99.90;;;;;;7364809;19;20485;-63
2023/08/27 12:25:12;;;;;;;8.23;6.65;;;16.20;99.90;;;;;;7369552;19;20019;-62
2023/08/27 12:27:40;;;;;;;11.82;10.60;;;16.90;99.90;;;;;;7368068;19;20022;-63
2023/08/27 12:30:07;;;;;;;9.65;8.48;;;17.70;99.90;;;;;;7366860;19;20022;-64
2023/08/27 12:32:34;;;;;;;8.00;7.22;;;18.80;99.90;;;;;;7361930;19;20022;-62
2023/08/27 12:35:01;;;;;;;6.15;5.25;;;19.50;99.90;;;;;;7363223;19;20564;-63
2023/08/27 12:37:27;;;;;;;6.57;5.32;;;20.00;99.90;;;;;;7373589;19;20022;-63
2023/08/27 12:39:55;;;;;;;3.85;3.25;;;20.80;99.90;;;;;;7362991;19;20963;-64
2023/08/27 12:42:23;;;;;;;4.18;3.13;;;21.10;99.90;;;;;;7365665;19;20485;-63
2023/08/27 12:44:49;;;;;;;5.25;2.88;;;21.30;99.90;;;;;;7364792;19;20015;-63